sensor_id;sensor_type;location;lat;lon;timestamp;P1;durP1;ratioP1;P2;durP2;ratioP2
37047;SDS011;23227;48.780;9.210;2024-03-02T00:02:52;1.85;;;1.55;;
37047;SDS011;23227;48.780;9.210;2024-03-02T00:05:55;1.40;;;1.17;;
37047;SDS011;23227;48.780;9.210;2024-03-02T00:08:57;1.98;;;1.00;;
37047;SDS011;23227;48.780;9.210;2024-03-02T00:12:00;2.10;;;1.33;;
37047;SDS011;23227;48.780;9.210;2024-03-02T00:15:04;1.70;;;1.40;;
37047;SDS011;23227;48.780;9.210;2024-03-02T00:18:08;1.43;;;1.00;;
37047;SDS011;23227;48.780;9.210;2024-03-02T00:21:14;1.43;;;1.10;;
37047;SDS011;23227;48.780;9.210;2024-03-02T00:24:20;1.67;;;1.10;;
37047;SDS011;23227;48.780;9.210;2024-03-02T00:27:23;1.50;;;1.33;;
37047;SDS011;23227;48.780;9.210;2024-03-02T00:30:37;1.13;;;1.02;;
37047;SDS011;23227;48.780;9.210;2024-03-02T00:33:59;1.53;;;1.20;;
37047;SDS011;23227;48.780;9.210;2024-03-02T00:37:05;1.93;;;1.10;;
37047;SDS011;23227;48.780;9.210;2024-03-02T00:40:08;1.35;;;1.10;;
37047;SDS011;23227;48.780;9.210;2024-03-02T00:43:19;1.37;;;1.07;;
37047;SDS011;23227;48.780;9.210;2024-03-02T00:46:44;1.10;;;1.00;;
37047;SDS011;23227;48.780;9.210;2024-03-02T00:49:48;1.67;;;1.20;;
37047;SDS011;23227;48.780;9.210;2024-03-02T00:52:51;2.20;;;0.90;;
37047;SDS011;23227;48.780;9.210;2024-03-02T00:55:54;1.97;;;1.00;;
37047;SDS011;23227;48.780;9.210;2024-03-02T00:58:57;1.50;;;0.98;;
37047;SDS011;23227;48.780;9.210;2024-03-02T01:02:01;1.93;;;0.90;;
37047;SDS011;23227;48.780;9.210;2024-03-02T01:05:05;1.52;;;1.05;;
37047;SDS011;23227;48.780;9.210;2024-03-02T01:08:09;2.00;;;1.20;;
37047;SDS011;23227;48.780;9.210;2024-03-02T01:14:15;1.20;;;1.03;;
37047;SDS011;23227;48.780;9.210;2024-03-02T01:17:18;1.40;;;1.07;;
37047;SDS011;23227;48.780;9.210;2024-03-02T01:20:22;1.35;;;1.00;;
37047;SDS011;23227;48.780;9.210;2024-03-02T01:23:26;1.10;;;0.80;;
37047;SDS011;23227;48.780;9.210;2024-03-02T01:26:28;1.75;;;0.90;;
37047;SDS011;23227;48.780;9.210;2024-03-02T01:29:32;1.50;;;1.10;;
37047;SDS011;23227;48.780;9.210;2024-03-02T01:32:34;0.85;;;0.73;;
37047;SDS011;23227;48.780;9.210;2024-03-02T01:35:38;1.58;;;1.20;;
37047;SDS011;23227;48.780;9.210;2024-03-02T01:38:41;1.63;;;1.03;;
37047;SDS011;23227;48.780;9.210;2024-03-02T01:41:44;1.50;;;1.10;;
37047;SDS011;23227;48.780;9.210;2024-03-02T01:44:47;1.85;;;0.93;;
37047;SDS011;23227;48.780;9.210;2024-03-02T01:47:49;1.15;;;1.05;;
37047;SDS011;23227;48.780;9.210;2024-03-02T01:50:53;1.33;;;0.77;;
37047;SDS011;23227;48.780;9.210;2024-03-02T01:53:56;2.10;;;0.97;;
37047;SDS011;23227;48.780;9.210;2024-03-02T01:56:59;1.02;;;0.93;;
37047;SDS011;23227;48.780;9.210;2024-03-02T02:00:02;1.15;;;0.90;;
37047;SDS011;23227;48.780;9.210;2024-03-02T02:03:05;1.00;;;0.73;;
37047;SDS011;23227;48.780;9.210;2024-03-02T02:06:09;1.20;;;1.08;;
37047;SDS011;23227;48.780;9.210;2024-03-02T02:09:13;2.73;;;1.10;;
37047;SDS011;23227;48.780;9.210;2024-03-02T02:12:16;1.17;;;1.00;;
37047;SDS011;23227;48.780;9.210;2024-03-02T02:15:22;1.48;;;1.02;;
37047;SDS011;23227;48.780;9.210;2024-03-02T02:18:28;1.10;;;0.90;;
37047;SDS011;23227;48.780;9.210;2024-03-02T02:21:32;1.15;;;0.90;;
37047;SDS011;23227;48.780;9.210;2024-03-02T02:24:35;1.03;;;0.93;;
37047;SDS011;23227;48.780;9.210;2024-03-02T02:27:37;1.10;;;0.90;;
37047;SDS011;23227;48.780;9.210;2024-03-02T02:30:40;1.65;;;1.05;;
37047;SDS011;23227;48.780;9.210;2024-03-02T02:33:44;1.10;;;1.00;;
37047;SDS011;23227;48.780;9.210;2024-03-02T02:36:47;0.80;;;0.80;;
37047;SDS011;23227;48.780;9.210;2024-03-02T02:39:50;1.30;;;1.00;;
37047;SDS011;23227;48.780;9.210;2024-03-02T02:42:54;0.90;;;0.77;;
37047;SDS011;23227;48.780;9.210;2024-03-02T02:45:58;1.10;;;1.00;;
37047;SDS011;23227;48.780;9.210;2024-03-02T02:49:01;1.02;;;0.80;;
37047;SDS011;23227;48.780;9.210;2024-03-02T02:52:05;1.27;;;0.90;;
37047;SDS011;23227;48.780;9.210;2024-03-02T02:55:08;1.30;;;0.93;;
37047;SDS011;23227;48.780;9.210;2024-03-02T02:58:11;1.03;;;0.93;;
37047;SDS011;23227;48.780;9.210;2024-03-02T03:01:14;1.08;;;0.70;;
37047;SDS011;23227;48.780;9.210;2024-03-02T03:04:18;0.80;;;0.80;;
37047;SDS011;23227;48.780;9.210;2024-03-02T03:07:22;1.27;;;1.00;;
37047;SDS011;23227;48.780;9.210;2024-03-02T03:10:25;1.20;;;1.00;;
37047;SDS011;23227;48.780;9.210;2024-03-02T03:13:29;1.13;;;0.97;;
37047;SDS011;23227;48.780;9.210;2024-03-02T03:16:31;1.13;;;0.80;;
37047;SDS011;23227;48.780;9.210;2024-03-02T03:19:34;1.27;;;1.05;;
37047;SDS011;23227;48.780;9.210;2024-03-02T03:28:44;1.10;;;1.00;;
37047;SDS011;23227;48.780;9.210;2024-03-02T03:31:46;1.27;;;1.10;;
37047;SDS011;23227;48.780;9.210;2024-03-02T03:34:49;1.08;;;0.80;;
37047;SDS011;23227;48.780;9.210;2024-03-02T03:37:53;1.48;;;1.15;;
37047;SDS011;23227;48.780;9.210;2024-03-02T03:40:55;1.27;;;1.00;;
37047;SDS011;23227;48.780;9.210;2024-03-02T03:43:58;1.20;;;0.95;;
37047;SDS011;23227;48.780;9.210;2024-03-02T03:47:01;1.75;;;0.77;;
37047;SDS011;23227;48.780;9.210;2024-03-02T03:50:06;1.10;;;0.90;;
37047;SDS011;23227;48.780;9.210;2024-03-02T03:53:10;2.13;;;1.13;;
37047;SDS011;23227;48.780;9.210;2024-03-02T03:56:13;1.07;;;0.90;;
37047;SDS011;23227;48.780;9.210;2024-03-02T03:59:16;0.93;;;0.70;;
37047;SDS011;23227;48.780;9.210;2024-03-02T04:02:18;1.42;;;0.93;;
37047;SDS011;23227;48.780;9.210;2024-03-02T04:05:21;0.98;;;0.80;;
37047;SDS011;23227;48.780;9.210;2024-03-02T04:08:25;1.00;;;0.90;;
37047;SDS011;23227;48.780;9.210;2024-03-02T04:11:27;1.43;;;0.90;;
37047;SDS011;23227;48.780;9.210;2024-03-02T04:14:30;1.20;;;0.95;;
37047;SDS011;23227;48.780;9.210;2024-03-02T04:17:32;1.08;;;0.90;;
37047;SDS011;23227;48.780;9.210;2024-03-02T04:20:37;1.03;;;0.77;;
37047;SDS011;23227;48.780;9.210;2024-03-02T04:23:41;1.05;;;0.85;;
37047;SDS011;23227;48.780;9.210;2024-03-02T04:26:43;0.97;;;0.77;;
37047;SDS011;23227;48.780;9.210;2024-03-02T04:29:46;1.15;;;1.00;;
37047;SDS011;23227;48.780;9.210;2024-03-02T04:32:48;0.70;;;0.70;;
37047;SDS011;23227;48.780;9.210;2024-03-02T04:35:51;1.67;;;1.10;;
37047;SDS011;23227;48.780;9.210;2024-03-02T04:38:55;1.10;;;0.95;;
37047;SDS011;23227;48.780;9.210;2024-03-02T04:41:58;0.83;;;0.70;;
37047;SDS011;23227;48.780;9.210;2024-03-02T04:45:00;0.95;;;0.70;;
37047;SDS011;23227;48.780;9.210;2024-03-02T04:48:03;0.70;;;0.70;;
37047;SDS011;23227;48.780;9.210;2024-03-02T04:54:10;1.17;;;0.80;;
37047;SDS011;23227;48.780;9.210;2024-03-02T04:57:15;1.17;;;1.00;;
37047;SDS011;23227;48.780;9.210;2024-03-02T05:00:18;0.77;;;0.75;;
37047;SDS011;23227;48.780;9.210;2024-03-02T05:03:21;0.90;;;0.80;;
37047;SDS011;23227;48.780;9.210;2024-03-02T05:06:23;1.52;;;0.70;;
37047;SDS011;23227;48.780;9.210;2024-03-02T05:09:27;1.02;;;0.73;;
37047;SDS011;23227;48.780;9.210;2024-03-02T05:12:30;0.70;;;0.67;;
37047;SDS011;23227;48.780;9.210;2024-03-02T05:15:56;0.70;;;0.63;;
37047;SDS011;23227;48.780;9.210;2024-03-02T05:18:59;1.38;;;1.02;;
37047;SDS011;23227;48.780;9.210;2024-03-02T05:22:02;11.02;;;4.50;;
37047;SDS011;23227;48.780;9.210;2024-03-02T05:25:07;12.63;;;5.55;;
37047;SDS011;23227;48.780;9.210;2024-03-02T05:28:11;11.33;;;6.27;;
37047;SDS011;23227;48.780;9.210;2024-03-02T05:31:14;8.35;;;5.45;;
37047;SDS011;23227;48.780;9.210;2024-03-02T05:34:17;11.37;;;6.13;;
37047;SDS011;23227;48.780;9.210;2024-03-02T05:37:20;11.88;;;6.13;;
37047;SDS011;23227;48.780;9.210;2024-03-02T05:40:25;7.43;;;4.57;;
37047;SDS011;23227;48.780;9.210;2024-03-02T05:43:27;7.17;;;4.07;;
37047;SDS011;23227;48.780;9.210;2024-03-02T05:46:30;8.90;;;3.00;;
37047;SDS011;23227;48.780;9.210;2024-03-02T05:49:34;5.77;;;3.00;;
37047;SDS011;23227;48.780;9.210;2024-03-02T05:52:37;5.18;;;2.50;;
37047;SDS011;23227;48.780;9.210;2024-03-02T05:55:41;3.53;;;2.10;;
37047;SDS011;23227;48.780;9.210;2024-03-02T05:58:44;6.57;;;2.00;;
37047;SDS011;23227;48.780;9.210;2024-03-02T06:02:01;3.73;;;2.00;;
37047;SDS011;23227;48.780;9.210;2024-03-02T06:08:09;25.73;;;4.97;;
37047;SDS011;23227;48.780;9.210;2024-03-02T06:11:13;29.73;;;5.55;;
37047;SDS011;23227;48.780;9.210;2024-03-02T06:14:15;18.70;;;6.20;;
37047;SDS011;23227;48.780;9.210;2024-03-02T06:17:18;10.48;;;3.90;;
37047;SDS011;23227;48.780;9.210;2024-03-02T06:20:21;9.10;;;4.13;;
37047;SDS011;23227;48.780;9.210;2024-03-02T06:23:23;17.77;;;3.97;;
37047;SDS011;23227;48.780;9.210;2024-03-02T06:26:27;13.52;;;3.30;;
37047;SDS011;23227;48.780;9.210;2024-03-02T06:29:32;12.63;;;3.27;;
37047;SDS011;23227;48.780;9.210;2024-03-02T06:32:35;11.30;;;3.77;;
37047;SDS011;23227;48.780;9.210;2024-03-02T06:35:37;13.98;;;3.55;;
37047;SDS011;23227;48.780;9.210;2024-03-02T06:38:40;12.13;;;2.75;;
37047;SDS011;23227;48.780;9.210;2024-03-02T06:41:45;11.03;;;3.37;;
37047;SDS011;23227;48.780;9.210;2024-03-02T06:44:48;7.97;;;2.40;;
37047;SDS011;23227;48.780;9.210;2024-03-02T06:47:51;12.20;;;2.70;;
37047;SDS011;23227;48.780;9.210;2024-03-02T06:50:54;10.68;;;2.92;;
37047;SDS011;23227;48.780;9.210;2024-03-02T06:53:57;13.10;;;2.60;;
37047;SDS011;23227;48.780;9.210;2024-03-02T06:57:01;9.65;;;2.17;;
37047;SDS011;23227;48.780;9.210;2024-03-02T07:00:04;7.57;;;2.23;;
37047;SDS011;23227;48.780;9.210;2024-03-02T07:03:10;9.17;;;2.03;;
37047;SDS011;23227;48.780;9.210;2024-03-02T07:06:13;9.90;;;2.77;;
37047;SDS011;23227;48.780;9.210;2024-03-02T07:09:16;8.48;;;2.63;;
37047;SDS011;23227;48.780;9.210;2024-03-02T07:12:20;8.18;;;2.10;;
37047;SDS011;23227;48.780;9.210;2024-03-02T07:15:23;8.10;;;2.10;;
37047;SDS011;23227;48.780;9.210;2024-03-02T07:18:45;6.35;;;2.38;;
37047;SDS011;23227;48.780;9.210;2024-03-02T07:21:53;5.30;;;1.83;;
37047;SDS011;23227;48.780;9.210;2024-03-02T07:24:56;3.78;;;1.88;;
37047;SDS011;23227;48.780;9.210;2024-03-02T07:28:00;3.40;;;1.70;;
37047;SDS011;23227;48.780;9.210;2024-03-02T07:31:03;7.37;;;1.90;;
37047;SDS011;23227;48.780;9.210;2024-03-02T07:34:06;8.60;;;2.30;;
37047;SDS011;23227;48.780;9.210;2024-03-02T07:37:09;6.18;;;1.70;;
37047;SDS011;23227;48.780;9.210;2024-03-02T07:40:12;7.85;;;2.45;;
37047;SDS011;23227;48.780;9.210;2024-03-02T07:46:19;4.10;;;1.83;;
37047;SDS011;23227;48.780;9.210;2024-03-02T07:49:21;6.38;;;1.95;;
37047;SDS011;23227;48.780;9.210;2024-03-02T07:52:24;3.45;;;1.70;;
37047;SDS011;23227;48.780;9.210;2024-03-02T07:55:27;3.13;;;1.30;;
37047;SDS011;23227;48.780;9.210;2024-03-02T07:58:31;4.18;;;1.60;;
37047;SDS011;23227;48.780;9.210;2024-03-02T08:01:34;4.40;;;1.40;;
37047;SDS011;23227;48.780;9.210;2024-03-02T08:04:37;4.07;;;1.73;;
37047;SDS011;23227;48.780;9.210;2024-03-02T08:07:40;3.45;;;1.35;;
37047;SDS011;23227;48.780;9.210;2024-03-02T08:10:43;4.50;;;1.75;;
37047;SDS011;23227;48.780;9.210;2024-03-02T08:13:47;2.78;;;1.40;;
37047;SDS011;23227;48.780;9.210;2024-03-02T08:16:49;3.53;;;1.83;;
37047;SDS011;23227;48.780;9.210;2024-03-02T08:19:52;3.35;;;1.40;;
37047;SDS011;23227;48.780;9.210;2024-03-02T08:22:55;3.88;;;1.63;;
37047;SDS011;23227;48.780;9.210;2024-03-02T08:25:57;4.07;;;1.48;;
37047;SDS011;23227;48.780;9.210;2024-03-02T08:29:01;2.75;;;1.23;;
37047;SDS011;23227;48.780;9.210;2024-03-02T08:32:06;3.00;;;1.47;;
37047;SDS011;23227;48.780;9.210;2024-03-02T08:35:08;3.10;;;1.20;;
37047;SDS011;23227;48.780;9.210;2024-03-02T08:38:11;3.60;;;1.42;;
37047;SDS011;23227;48.780;9.210;2024-03-02T08:44:18;3.25;;;1.20;;
37047;SDS011;23227;48.780;9.210;2024-03-02T08:47:21;2.20;;;1.10;;
37047;SDS011;23227;48.780;9.210;2024-03-02T08:50:24;2.13;;;1.23;;
37047;SDS011;23227;48.780;9.210;2024-03-02T08:53:26;4.25;;;1.20;;
37047;SDS011;23227;48.780;9.210;2024-03-02T08:56:29;4.28;;;1.65;;
37047;SDS011;23227;48.780;9.210;2024-03-02T08:59:33;2.90;;;1.20;;
37047;SDS011;23227;48.780;9.210;2024-03-02T09:02:36;2.43;;;1.17;;
37047;SDS011;23227;48.780;9.210;2024-03-02T09:05:38;2.85;;;1.27;;
37047;SDS011;23227;48.780;9.210;2024-03-02T09:08:41;2.10;;;1.27;;
37047;SDS011;23227;48.780;9.210;2024-03-02T09:11:45;2.05;;;0.98;;
37047;SDS011;23227;48.780;9.210;2024-03-02T09:14:49;1.83;;;1.10;;
37047;SDS011;23227;48.780;9.210;2024-03-02T09:17:52;2.30;;;1.10;;
37047;SDS011;23227;48.780;9.210;2024-03-02T09:20:54;2.53;;;1.25;;
37047;SDS011;23227;48.780;9.210;2024-03-02T09:23:57;1.77;;;0.95;;
37047;SDS011;23227;48.780;9.210;2024-03-02T09:27:00;2.58;;;1.20;;
37047;SDS011;23227;48.780;9.210;2024-03-02T09:30:04;3.20;;;1.10;;
37047;SDS011;23227;48.780;9.210;2024-03-02T09:33:09;1.97;;;1.40;;
37047;SDS011;23227;48.780;9.210;2024-03-02T09:36:17;1.53;;;0.90;;
37047;SDS011;23227;48.780;9.210;2024-03-02T09:39:20;1.87;;;1.10;;
37047;SDS011;23227;48.780;9.210;2024-03-02T09:42:23;1.08;;;0.75;;
37047;SDS011;23227;48.780;9.210;2024-03-02T09:45:28;1.40;;;1.00;;
37047;SDS011;23227;48.780;9.210;2024-03-02T09:48:32;1.03;;;0.80;;
37047;SDS011;23227;48.780;9.210;2024-03-02T09:51:35;2.25;;;0.90;;
37047;SDS011;23227;48.780;9.210;2024-03-02T09:54:37;1.20;;;0.93;;
37047;SDS011;23227;48.780;9.210;2024-03-02T09:57:40;1.58;;;1.10;;
37047;SDS011;23227;48.780;9.210;2024-03-02T10:00:45;1.60;;;1.00;;
37047;SDS011;23227;48.780;9.210;2024-03-02T10:03:48;2.77;;;1.00;;
37047;SDS011;23227;48.780;9.210;2024-03-02T10:06:51;1.00;;;0.90;;
37047;SDS011;23227;48.780;9.210;2024-03-02T10:09:55;1.00;;;0.73;;
37047;SDS011;23227;48.780;9.210;2024-03-02T10:12:59;1.27;;;0.75;;
37047;SDS011;23227;48.780;9.210;2024-03-02T10:16:12;1.30;;;0.70;;
37047;SDS011;23227;48.780;9.210;2024-03-02T10:19:16;2.00;;;0.80;;
37047;SDS011;23227;48.780;9.210;2024-03-02T10:22:19;0.97;;;0.80;;
37047;SDS011;23227;48.780;9.210;2024-03-02T10:25:29;1.30;;;1.07;;
37047;SDS011;23227;48.780;9.210;2024-03-02T10:28:47;4.63;;;0.80;;
37047;SDS011;23227;48.780;9.210;2024-03-02T10:31:53;1.63;;;0.80;;
37047;SDS011;23227;48.780;9.210;2024-03-02T10:34:57;1.27;;;0.90;;
37047;SDS011;23227;48.780;9.210;2024-03-02T10:38:01;2.10;;;0.80;;
37047;SDS011;23227;48.780;9.210;2024-03-02T10:41:06;1.40;;;0.90;;
37047;SDS011;23227;48.780;9.210;2024-03-02T10:44:10;1.23;;;0.93;;
37047;SDS011;23227;48.780;9.210;2024-03-02T10:47:14;2.25;;;1.00;;
37047;SDS011;23227;48.780;9.210;2024-03-02T10:50:17;1.50;;;0.87;;
37047;SDS011;23227;48.780;9.210;2024-03-02T10:53:20;2.28;;;0.73;;
37047;SDS011;23227;48.780;9.210;2024-03-02T10:56:26;1.45;;;0.80;;
37047;SDS011;23227;48.780;9.210;2024-03-02T10:59:32;2.07;;;0.80;;
37047;SDS011;23227;48.780;9.210;2024-03-02T11:02:37;1.83;;;0.90;;
37047;SDS011;23227;48.780;9.210;2024-03-02T11:05:43;0.87;;;0.80;;
37047;SDS011;23227;48.780;9.210;2024-03-02T11:08:46;0.97;;;0.80;;
37047;SDS011;23227;48.780;9.210;2024-03-02T11:11:53;0.80;;;0.67;;
37047;SDS011;23227;48.780;9.210;2024-03-02T11:14:58;2.33;;;0.60;;
37047;SDS011;23227;48.780;9.210;2024-03-02T11:18:04;1.30;;;0.70;;
37047;SDS011;23227;48.780;9.210;2024-03-02T11:21:10;1.70;;;0.80;;
37047;SDS011;23227;48.780;9.210;2024-03-02T11:24:28;1.10;;;0.60;;
37047;SDS011;23227;48.780;9.210;2024-03-02T11:31:03;1.23;;;0.77;;
37047;SDS011;23227;48.780;9.210;2024-03-02T11:34:18;1.85;;;0.90;;
37047;SDS011;23227;48.780;9.210;2024-03-02T11:37:31;1.20;;;0.80;;
37047;SDS011;23227;48.780;9.210;2024-03-02T11:40:33;0.93;;;0.63;;
37047;SDS011;23227;48.780;9.210;2024-03-02T11:43:37;1.00;;;0.90;;
37047;SDS011;23227;48.780;9.210;2024-03-02T11:46:41;1.40;;;0.90;;
37047;SDS011;23227;48.780;9.210;2024-03-02T11:49:45;1.85;;;0.77;;
37047;SDS011;23227;48.780;9.210;2024-03-02T11:52:51;2.30;;;0.77;;
37047;SDS011;23227;48.780;9.210;2024-03-02T11:55:54;0.95;;;0.77;;
37047;SDS011;23227;48.780;9.210;2024-03-02T11:58:57;1.37;;;0.57;;
37047;SDS011;23227;48.780;9.210;2024-03-02T12:02:00;2.22;;;0.90;;
37047;SDS011;23227;48.780;9.210;2024-03-02T12:05:06;1.20;;;0.80;;
37047;SDS011;23227;48.780;9.210;2024-03-02T12:08:10;2.33;;;0.80;;
37047;SDS011;23227;48.780;9.210;2024-03-02T12:11:14;2.40;;;0.97;;
37047;SDS011;23227;48.780;9.210;2024-03-02T12:14:17;1.87;;;0.90;;
37047;SDS011;23227;48.780;9.210;2024-03-02T12:17:20;1.23;;;0.70;;
37047;SDS011;23227;48.780;9.210;2024-03-02T12:20:26;1.33;;;0.70;;
37047;SDS011;23227;48.780;9.210;2024-03-02T12:23:30;1.10;;;0.67;;
37047;SDS011;23227;48.780;9.210;2024-03-02T12:26:33;1.10;;;0.70;;
37047;SDS011;23227;48.780;9.210;2024-03-02T12:29:35;1.38;;;0.82;;
37047;SDS011;23227;48.780;9.210;2024-03-02T12:32:38;1.15;;;0.95;;
37047;SDS011;23227;48.780;9.210;2024-03-02T12:35:42;1.80;;;1.00;;
37047;SDS011;23227;48.780;9.210;2024-03-02T12:38:45;1.60;;;1.00;;
37047;SDS011;23227;48.780;9.210;2024-03-02T12:41:48;1.55;;;0.90;;
37047;SDS011;23227;48.780;9.210;2024-03-02T12:44:52;2.03;;;1.03;;
37047;SDS011;23227;48.780;9.210;2024-03-02T12:47:56;3.23;;;0.70;;
37047;SDS011;23227;48.780;9.210;2024-03-02T12:51:00;0.70;;;0.55;;
37047;SDS011;23227;48.780;9.210;2024-03-02T12:54:02;1.13;;;0.80;;
37047;SDS011;23227;48.780;9.210;2024-03-02T12:57:06;1.23;;;0.70;;
37047;SDS011;23227;48.780;9.210;2024-03-02T13:00:09;1.05;;;0.77;;
37047;SDS011;23227;48.780;9.210;2024-03-02T13:03:14;2.43;;;0.80;;
37047;SDS011;23227;48.780;9.210;2024-03-02T13:06:20;1.43;;;0.70;;
37047;SDS011;23227;48.780;9.210;2024-03-02T13:09:24;1.10;;;0.80;;
37047;SDS011;23227;48.780;9.210;2024-03-02T13:15:29;2.50;;;0.83;;
37047;SDS011;23227;48.780;9.210;2024-03-02T13:18:33;0.98;;;0.50;;
37047;SDS011;23227;48.780;9.210;2024-03-02T13:21:37;5.37;;;1.40;;
37047;SDS011;23227;48.780;9.210;2024-03-02T13:24:39;3.40;;;0.87;;
37047;SDS011;23227;48.780;9.210;2024-03-02T13:27:43;1.17;;;0.73;;
37047;SDS011;23227;48.780;9.210;2024-03-02T13:30:46;1.23;;;0.70;;
37047;SDS011;23227;48.780;9.210;2024-03-02T13:33:49;2.28;;;0.80;;
37047;SDS011;23227;48.780;9.210;2024-03-02T13:36:53;1.73;;;0.77;;
37047;SDS011;23227;48.780;9.210;2024-03-02T13:39:55;3.17;;;1.07;;
37047;SDS011;23227;48.780;9.210;2024-03-02T13:42:58;4.82;;;1.42;;
37047;SDS011;23227;48.780;9.210;2024-03-02T13:46:02;2.30;;;0.80;;
37047;SDS011;23227;48.780;9.210;2024-03-02T13:49:05;1.13;;;0.70;;
37047;SDS011;23227;48.780;9.210;2024-03-02T13:52:09;3.15;;;0.68;;
37047;SDS011;23227;48.780;9.210;2024-03-02T13:55:14;3.43;;;0.90;;
37047;SDS011;23227;48.780;9.210;2024-03-02T13:58:17;0.70;;;0.50;;
37047;SDS011;23227;48.780;9.210;2024-03-02T14:01:21;2.00;;;1.00;;
37047;SDS011;23227;48.780;9.210;2024-03-02T14:04:24;2.30;;;0.90;;
37047;SDS011;23227;48.780;9.210;2024-03-02T14:07:28;4.60;;;0.70;;
37047;SDS011;23227;48.780;9.210;2024-03-02T14:10:30;1.40;;;0.87;;
37047;SDS011;23227;48.780;9.210;2024-03-02T14:13:33;1.35;;;0.63;;
37047;SDS011;23227;48.780;9.210;2024-03-02T14:16:36;1.67;;;0.85;;
37047;SDS011;23227;48.780;9.210;2024-03-02T14:19:38;0.63;;;0.52;;
37047;SDS011;23227;48.780;9.210;2024-03-02T14:22:42;1.73;;;0.47;;
37047;SDS011;23227;48.780;9.210;2024-03-02T14:25:45;1.37;;;0.93;;
37047;SDS011;23227;48.780;9.210;2024-03-02T14:28:48;0.70;;;0.60;;
37047;SDS011;23227;48.780;9.210;2024-03-02T14:31:53;3.27;;;0.60;;
37047;SDS011;23227;48.780;9.210;2024-03-02T14:34:55;0.68;;;0.52;;
37047;SDS011;23227;48.780;9.210;2024-03-02T14:37:59;1.30;;;0.63;;
37047;SDS011;23227;48.780;9.210;2024-03-02T14:41:02;0.60;;;0.60;;
37047;SDS011;23227;48.780;9.210;2024-03-02T14:44:05;0.60;;;0.60;;
37047;SDS011;23227;48.780;9.210;2024-03-02T14:47:07;0.45;;;0.45;;
37047;SDS011;23227;48.780;9.210;2024-03-02T14:50:10;0.77;;;0.43;;
37047;SDS011;23227;48.780;9.210;2024-03-02T14:53:15;1.87;;;0.97;;
37047;SDS011;23227;48.780;9.210;2024-03-02T14:56:17;1.90;;;0.73;;
37047;SDS011;23227;48.780;9.210;2024-03-02T14:59:20;0.70;;;0.60;;
37047;SDS011;23227;48.780;9.210;2024-03-02T15:02:23;0.80;;;0.50;;
37047;SDS011;23227;48.780;9.210;2024-03-02T15:05:25;1.17;;;0.70;;
37047;SDS011;23227;48.780;9.210;2024-03-02T15:08:29;0.70;;;0.50;;
37047;SDS011;23227;48.780;9.210;2024-03-02T15:11:32;1.23;;;0.60;;
37047;SDS011;23227;48.780;9.210;2024-03-02T15:14:35;2.25;;;0.93;;
37047;SDS011;23227;48.780;9.210;2024-03-02T15:17:39;1.07;;;0.67;;
37047;SDS011;23227;48.780;9.210;2024-03-02T15:20:42;2.10;;;0.60;;
37047;SDS011;23227;48.780;9.210;2024-03-02T15:23:46;1.00;;;0.80;;
37047;SDS011;23227;48.780;9.210;2024-03-02T15:26:48;0.60;;;0.40;;
37047;SDS011;23227;48.780;9.210;2024-03-02T15:29:51;0.80;;;0.68;;
37047;SDS011;23227;48.780;9.210;2024-03-02T15:32:53;1.30;;;0.80;;
37047;SDS011;23227;48.780;9.210;2024-03-02T15:35:57;1.50;;;0.70;;
37047;SDS011;23227;48.780;9.210;2024-03-02T15:39:02;1.37;;;0.70;;
37047;SDS011;23227;48.780;9.210;2024-03-02T15:42:09;1.03;;;0.63;;
37047;SDS011;23227;48.780;9.210;2024-03-02T15:45:12;0.60;;;0.50;;
37047;SDS011;23227;48.780;9.210;2024-03-02T15:48:15;0.45;;;0.43;;
37047;SDS011;23227;48.780;9.210;2024-03-02T15:51:17;0.80;;;0.47;;
37047;SDS011;23227;48.780;9.210;2024-03-02T15:57:24;0.57;;;0.57;;
37047;SDS011;23227;48.780;9.210;2024-03-02T16:00:27;1.55;;;0.50;;
37047;SDS011;23227;48.780;9.210;2024-03-02T16:03:29;0.80;;;0.60;;
37047;SDS011;23227;48.780;9.210;2024-03-02T16:06:34;1.10;;;0.57;;
37047;SDS011;23227;48.780;9.210;2024-03-02T16:09:38;1.02;;;0.70;;
37047;SDS011;23227;48.780;9.210;2024-03-02T16:12:41;2.37;;;0.73;;
37047;SDS011;23227;48.780;9.210;2024-03-02T16:15:43;0.50;;;0.50;;
37047;SDS011;23227;48.780;9.210;2024-03-02T16:18:46;1.60;;;0.40;;
37047;SDS011;23227;48.780;9.210;2024-03-02T16:21:48;0.50;;;0.47;;
37047;SDS011;23227;48.780;9.210;2024-03-02T16:24:52;0.63;;;0.60;;
37047;SDS011;23227;48.780;9.210;2024-03-02T16:27:55;0.60;;;0.33;;
37047;SDS011;23227;48.780;9.210;2024-03-02T16:30:58;0.30;;;0.30;;
37047;SDS011;23227;48.780;9.210;2024-03-02T16:34:01;1.90;;;0.70;;
37047;SDS011;23227;48.780;9.210;2024-03-02T16:37:04;1.03;;;0.50;;
37047;SDS011;23227;48.780;9.210;2024-03-02T16:40:09;0.60;;;0.40;;
37047;SDS011;23227;48.780;9.210;2024-03-02T16:43:13;0.77;;;0.60;;
37047;SDS011;23227;48.780;9.210;2024-03-02T16:46:15;1.48;;;0.65;;
37047;SDS011;23227;48.780;9.210;2024-03-02T16:49:18;2.65;;;0.73;;
37047;SDS011;23227;48.780;9.210;2024-03-02T16:52:22;10.63;;;1.00;;
37047;SDS011;23227;48.780;9.210;2024-03-02T16:56:00;3.93;;;0.67;;
37047;SDS011;23227;48.780;9.210;2024-03-02T16:59:04;4.33;;;1.03;;
37047;SDS011;23227;48.780;9.210;2024-03-02T17:02:07;6.50;;;0.90;;
37047;SDS011;23227;48.780;9.210;2024-03-02T17:05:11;1.10;;;0.63;;
37047;SDS011;23227;48.780;9.210;2024-03-02T17:08:15;3.80;;;0.93;;
37047;SDS011;23227;48.780;9.210;2024-03-02T17:11:19;3.42;;;0.80;;
37047;SDS011;23227;48.780;9.210;2024-03-02T17:14:22;3.67;;;0.80;;
37047;SDS011;23227;48.780;9.210;2024-03-02T17:17:25;4.00;;;0.80;;
37047;SDS011;23227;48.780;9.210;2024-03-02T17:20:29;3.30;;;0.77;;
37047;SDS011;23227;48.780;9.210;2024-03-02T17:23:31;1.77;;;0.88;;
37047;SDS011;23227;48.780;9.210;2024-03-02T17:26:35;1.58;;;0.90;;
37047;SDS011;23227;48.780;9.210;2024-03-02T17:29:39;1.70;;;0.80;;
37047;SDS011;23227;48.780;9.210;2024-03-02T17:32:42;1.50;;;0.88;;
37047;SDS011;23227;48.780;9.210;2024-03-02T17:35:45;5.40;;;0.98;;
37047;SDS011;23227;48.780;9.210;2024-03-02T17:38:48;2.00;;;0.80;;
37047;SDS011;23227;48.780;9.210;2024-03-02T17:41:52;3.65;;;0.95;;
37047;SDS011;23227;48.780;9.210;2024-03-02T17:44:55;3.70;;;0.83;;
37047;SDS011;23227;48.780;9.210;2024-03-02T17:47:57;1.92;;;0.50;;
37047;SDS011;23227;48.780;9.210;2024-03-02T17:51:00;3.70;;;1.33;;
37047;SDS011;23227;48.780;9.210;2024-03-02T17:54:03;1.23;;;0.60;;
37047;SDS011;23227;48.780;9.210;2024-03-02T17:57:08;2.17;;;1.17;;
37047;SDS011;23227;48.780;9.210;2024-03-02T18:00:11;3.93;;;0.93;;
37047;SDS011;23227;48.780;9.210;2024-03-02T18:03:15;3.77;;;1.00;;
37047;SDS011;23227;48.780;9.210;2024-03-02T18:06:18;2.00;;;0.75;;
37047;SDS011;23227;48.780;9.210;2024-03-02T18:09:20;3.88;;;1.08;;
37047;SDS011;23227;48.780;9.210;2024-03-02T18:12:24;3.05;;;0.70;;
37047;SDS011;23227;48.780;9.210;2024-03-02T18:15:27;4.13;;;1.10;;
37047;SDS011;23227;48.780;9.210;2024-03-02T18:18:29;1.77;;;0.90;;
37047;SDS011;23227;48.780;9.210;2024-03-02T18:21:32;3.85;;;1.00;;
37047;SDS011;23227;48.780;9.210;2024-03-02T18:24:35;2.17;;;0.80;;
37047;SDS011;23227;48.780;9.210;2024-03-02T18:27:40;1.00;;;0.60;;
37047;SDS011;23227;48.780;9.210;2024-03-02T18:30:42;2.67;;;0.80;;
37047;SDS011;23227;48.780;9.210;2024-03-02T18:33:45;2.65;;;1.20;;
37047;SDS011;23227;48.780;9.210;2024-03-02T18:36:47;1.75;;;1.05;;
37047;SDS011;23227;48.780;9.210;2024-03-02T18:39:50;2.42;;;1.00;;
37047;SDS011;23227;48.780;9.210;2024-03-02T18:42:56;1.97;;;0.90;;
37047;SDS011;23227;48.780;9.210;2024-03-02T18:46:00;2.30;;;0.90;;
37047;SDS011;23227;48.780;9.210;2024-03-02T18:49:03;3.22;;;0.80;;
37047;SDS011;23227;48.780;9.210;2024-03-02T18:52:05;1.52;;;1.02;;
37047;SDS011;23227;48.780;9.210;2024-03-02T18:55:08;2.08;;;1.00;;
37047;SDS011;23227;48.780;9.210;2024-03-02T18:58:14;1.50;;;0.83;;
37047;SDS011;23227;48.780;9.210;2024-03-02T19:01:17;2.87;;;0.90;;